Terminal Aerodrome Forecast
Issued by NWS Wilmington, OH

Home | Current Version | Previous Version | Text Only | Print | Product List | Glossary On
Versions: 1 2 3 4 5 6 7 8 9 10 11 12 13 14 15 16 17 18 19 20 21 22 23 24 25 26 27 28 29 30
000
FTUS41 KILN 280703 AAA
TAFILN
TAF AMD
KILN 280703Z 2807/2906 00000KT 3SM BR FEW040 SCT250
      TEMPO 2809/2812 1SM BR
     FM281300 09005KT P6SM FEW040 SCT250
     FM281700 10006KT P6SM BKN050
     FM290000 VRB04KT P6SM FEW040 SCT250=

USA.gov is the U.S. government's official web portal to all federal, state and local government web resources and services.